Dades meteomassalio
Diari Summary for Gener 5, 2018 Units:  Metric    English   Both
« Previous Day
Next Day »
Diari Semanal Mensual Anual Personalitzat
  Maxima: Minima: Mijana:
Temperatura: -17.8 °C -16.8 °C -12.9 °C
Rosada: -17.8 °C -20.1 °C -16.9 °C
Humitat: Humidity % 43 % 62 %
Velocitat del vent: 0 km/h 0 km/h 14.3 km/h
Racha vent: 0 km/h - -
Vent:- - WNW
Pressio: 0 hPa 34130.9 hPa -
Pluja: 0 mm    
Historical Graphs
 
 
Tabular Data for Gener 5, 2018
Time Temperature Dew Point Pressure Wind Wind Speed Wind Gust Humidity Rainfall Rate (Hourly) solar Conditions
-17.8 °C -17.8 °C 0 hPa Calm     Humidity % 0 mm SolarRadiationWatts/m^2 W/m2 Conditions
00:02 -11 °C -14.9 °C 34554.1 hPa WNW 23.8 km/h 23.8 km/h 62 % 0 mm 0.0 W/m2 CLR
00:07 -11 °C -14.9 °C 34554.1 hPa WSW 29.8 km/h 29.8 km/h 62 % 0 mm 0.0 W/m2 CLR
00:12 -11 °C -14.9 °C 34554.1 hPa West 32.8 km/h 32.8 km/h 62 % 0 mm 0.0 W/m2 CLR
00:18 -11 °C -14.9 °C 34554.1 hPa West 20.9 km/h 20.9 km/h 62 % 0 mm 0.0 W/m2 CLR
00:19 -11 °C -14.8 °C 34554.1 hPa WNW 15 km/h 15 km/h 63 % 0 mm 0.0 W/m2 CLR
00:24 -11 °C -14.8 °C 34554.1 hPa West 26.9 km/h 26.9 km/h 63 % 0 mm 0.0 W/m2 CLR
00:25 -11 °C -14.8 °C 34554.1 hPa West 29.8 km/h   63 % 0 mm 0.0 W/m2 CLR
00:28 -11.3 °C -15.1 °C 34554.1 hPa West 10.3 km/h 10.3 km/h 63 % 0 mm 0.0 W/m2 CLR
00:33 -11.3 °C -15.1 °C 34544 hPa WNW 23.8 km/h 23.8 km/h 63 % 0 mm 0.0 W/m2 CLR
00:35 -11.3 °C -14.9 °C 34554.1 hPa WNW 26.9 km/h 26.9 km/h 64 % 0 mm 0.0 W/m2 CLR
00:40 -11.6 °C -15.4 °C 34544 hPa WNW 32.8 km/h 32.8 km/h 63 % 0 mm 0.0 W/m2 CLR
00:41 -11.6 °C -15.4 °C 34544 hPa NW 29.8 km/h 29.8 km/h 63 % 0 mm 0.0 W/m2 CLR
00:46 -11.6 °C -15.4 °C 34544 hPa WNW 29.8 km/h 29.8 km/h 63 % 0 mm 0.0 W/m2 CLR
00:47 -11.6 °C -15.4 °C 34544 hPa WNW 29.8 km/h 29.8 km/h 63 % 0 mm 0.0 W/m2 CLR
00:52 -11.3 °C -15.2 °C 34544 hPa WNW 29.8 km/h 29.8 km/h 62 % 0 mm 0.0 W/m2 CLR
00:54 -11.3 °C -15.2 °C 34533.8 hPa WNW 15 km/h 15 km/h 62 % 0 mm 0.0 W/m2 CLR
00:59 -11 °C -14.8 °C 34533.8 hPa WNW 17.9 km/h 17.9 km/h 63 % 0 mm 0.0 W/m2 CLR
01:04 -11.3 °C -15.1 °C 34533.8 hPa WNW 20.9 km/h 20.9 km/h 63 % 0 mm 0.0 W/m2 CLR
01:07 -11.3 °C -15.1 °C 34533.8 hPa NW 23.8 km/h 23.8 km/h 63 % 0 mm 0.0 W/m2 CLR
01:12 -11.6 °C -15.4 °C 34533.8 hPa WNW 26.9 km/h 26.9 km/h 63 % 0 mm 0.0 W/m2 CLR
01:15 -11.6 °C -15.4 °C 34533.8 hPa West 20.8 km/h 20.8 km/h 63 % 0 mm 0.0 W/m2 CLR
01:20 -11.9 °C -15.7 °C 34520.3 hPa WNW 26.9 km/h 26.9 km/h 63 % 0 mm 0.0 W/m2 CLR
01:25 -12.2 °C -15.9 °C 34520.3 hPa WNW 23.8 km/h 23.8 km/h 63 % 0 mm 0.0 W/m2 CLR
01:26 -12.6 °C -16.4 °C 34520.3 hPa WNW 12.9 km/h 12.9 km/h 62 % 0 mm 0.0 W/m2 CLR
01:29 -12.6 °C -16.3 °C 34520.3 hPa West 11.9 km/h 11.9 km/h 63 % 0 mm 0.0 W/m2 CLR
01:32 -12.8 °C -16.6 °C 34510.1 hPa West 15 km/h 15 km/h 63 % 0 mm 0.0 W/m2 CLR
01:36 -12.8 °C -16.6 °C 34510.1 hPa WNW 23.8 km/h 23.8 km/h 63 % 0 mm 0.0 W/m2 CLR
01:38 -13.2 °C -16.8 °C 34510.1 hPa West 26.9 km/h 26.9 km/h 63 % 0 mm 0.0 W/m2 CLR
01:43 -13.2 °C -16.8 °C 34510.1 hPa West 23.8 km/h 23.8 km/h 63 % 0 mm 0.0 W/m2 CLR
01:44 -13.2 °C -16.8 °C 34510.1 hPa West 31.1 km/h 31.1 km/h 63 % 0 mm 0.0 W/m2 CLR
01:47 -13.4 °C -17.1 °C 34510.1 hPa West 17.9 km/h 17.9 km/h 63 % 0 mm 0.0 W/m2 CLR
01:52 -13.4 °C -17.1 °C 34510.1 hPa WNW 26.9 km/h 26.9 km/h 63 % 0 mm 0.0 W/m2 CLR
01:57 -13.4 °C -17.1 °C 34496.6 hPa WNW 18.2 km/h 18.2 km/h 63 % 0 mm 0.0 W/m2 CLR
02:00 -13.4 °C -17.1 °C 34496.6 hPa WNW 20.9 km/h 20.9 km/h 63 % 0 mm 0.0 W/m2 CLR
02:05 -13.8 °C -17.4 °C 34496.6 hPa West 18.2 km/h 18.2 km/h 63 % 0 mm 0.0 W/m2 CLR
02:10 -13.8 °C -17.4 °C 34496.6 hPa WNW 26.9 km/h 26.9 km/h 63 % 0 mm 0.0 W/m2 CLR
02:11 -13.8 °C -17.6 °C 34496.6 hPa WNW 23.8 km/h 23.8 km/h 62 % 0 mm 0.0 W/m2 CLR
02:16 -13.8 °C -17.6 °C 34496.6 hPa WNW 23.8 km/h 23.8 km/h 62 % 0 mm 0.0 W/m2 CLR
02:18 -14.1 °C -17.8 °C 34496.6 hPa West 20.9 km/h 20.9 km/h 62 % 0 mm 0.0 W/m2 CLR
02:23 -14.1 °C -17.7 °C 34486.4 hPa West 32.8 km/h 32.8 km/h 63 % 0 mm 0.0 W/m2 CLR
02:28 -13.2 °C -16.8 °C 34486.4 hPa WNW 15 km/h 15 km/h 63 % 0 mm 0.0 W/m2 CLR
02:29 -13.2 °C -16.8 °C 34486.4 hPa WNW 15 km/h 15 km/h 63 % 0 mm 0.0 W/m2 CLR
02:34 -13.2 °C -16.7 °C 34486.4 hPa West 25.9 km/h 25.9 km/h 64 % 0 mm 0.0 W/m2 CLR
02:35 -13.2 °C -16.7 °C 34486.4 hPa WNW 32.8 km/h 32.8 km/h 64 % 0 mm 0.0 W/m2 CLR
02:36 -13.2 °C -16.7 °C 34486.4 hPa WNW 32.8 km/h 32.8 km/h 64 % 0 mm 0.0 W/m2 CLR
02:40 -12.6 °C -16.2 °C 34486.4 hPa West 20.9 km/h 20.9 km/h 64 % 0 mm 0.0 W/m2 CLR
02:42 -12.6 °C -16.2 °C 34486.4 hPa West 23.3 km/h 23.3 km/h 64 % 0 mm 0.0 W/m2 CLR
02:45 -12.6 °C -16.2 °C 34486.4 hPa West 10.3 km/h 10.3 km/h 64 % 0 mm 0.0 W/m2 CLR
02:51 -12.6 °C -16 °C 34476.3 hPa West 15 km/h 15 km/h 65 % 0 mm 0.0 W/m2 CLR
02:54 -12.6 °C -16 °C 34476.3 hPa West 12.9 km/h 12.9 km/h 65 % 0 mm 0.0 W/m2 CLR
02:59 -12.2 °C -15.7 °C 34476.3 hPa West 18.2 km/h 18.2 km/h 65 % 0 mm 0.0 W/m2 CLR
03:04 -11.9 °C -15.4 °C 34476.3 hPa West 9 km/h 9 km/h 65 % 0 mm 0.0 W/m2 CLR
03:09 -11.6 °C -15.1 °C 34476.3 hPa West 11.9 km/h 11.9 km/h 65 % 0 mm 0.0 W/m2 CLR
03:13 -11.9 °C -15.4 °C 34476.3 hPa West 9 km/h 9 km/h 65 % 0 mm 0.0 W/m2 CLR
03:15 -12.2 °C -15.7 °C 34476.3 hPa West 18.2 km/h 18.2 km/h 65 % 0 mm 0.0 W/m2 CLR
03:19 -12.6 °C -16 °C 34476.3 hPa West 9 km/h 9 km/h 65 % 0 mm 0.0 W/m2 CLR
03:24 -13.2 °C -16.6 °C 34462.7 hPa WNW 11.9 km/h 11.9 km/h 65 % 0 mm 0.0 W/m2 CLR
03:30 -13.4 °C -16.9 °C 34462.7 hPa West 12.9 km/h 12.9 km/h 65 % 0 mm 0.0 W/m2 CLR
03:32 -13.4 °C -16.9 °C 34462.7 hPa WNW 17.9 km/h 17.9 km/h 65 % 0 mm 0.0 W/m2 CLR
03:36 -13.8 °C -17.2 °C 34462.7 hPa WNW 15.6 km/h 15.6 km/h 65 % 0 mm 0.0 W/m2 CLR
03:38 -13.8 °C -17.3 °C 34462.7 hPa West 15 km/h 15 km/h 64 % 0 mm 0.0 W/m2 CLR
03:43 -14.1 °C -17.6 °C 34452.6 hPa WNW 17.9 km/h 17.9 km/h 64 % 0 mm 0.0 W/m2 CLR
03:48 -14.1 °C -17.6 °C 34452.6 hPa West 29.8 km/h 29.8 km/h 64 % 0 mm 0.0 W/m2 CLR
03:49 -14.1 °C -17.6 °C 34452.6 hPa WNW 29.8 km/h 29.8 km/h 64 % 0 mm 0.0 W/m2 CLR
03:54 -14.1 °C -17.6 °C 34452.6 hPa West 20.9 km/h 20.9 km/h 64 % 0 mm 0.0 W/m2 CLR
03:59 -14.1 °C -17.4 °C 34442.4 hPa WNW 20.9 km/h 20.9 km/h 65 % 0 mm 0.0 W/m2 CLR
04:02 -14.1 °C -17.4 °C 34442.4 hPa WNW 10.3 km/h 10.3 km/h 65 % 0 mm 0.0 W/m2 CLR
04:03 -14.1 °C -17.4 °C 34442.4 hPa WNW 9 km/h 12.9 km/h 65 % 0 mm 0.0 W/m2 CLR
04:08 -14.1 °C -17.4 °C 34442.4 hPa WNW 23.8 km/h 23.8 km/h 65 % 0 mm 0.0 W/m2 CLR
04:13 -14.1 °C -17.4 °C 34442.4 hPa WNW 15 km/h 15 km/h 65 % 0 mm 0.0 W/m2 CLR
04:18 -14.1 °C -17.4 °C 34428.8 hPa West 3.1 km/h 3.1 km/h 65 % 0 mm 0.0 W/m2 CLR
04:23 -14.1 °C -17.3 °C 34428.8 hPa Calm     66 % 0 mm 0.0 W/m2 CLR
04:24 -14.4 °C -17.7 °C 34428.8 hPa Calm     66 % 0 mm 0.0 W/m2 CLR
04:29 -14.4 °C -17.7 °C 34428.8 hPa West 6 km/h 6 km/h 66 % 0 mm 0.0 W/m2 CLR
04:31 -14.4 °C -17.7 °C 34428.8 hPa Calm     66 % 0 mm 0.0 W/m2 CLR
04:35 -14.4 °C -17.7 °C 34428.8 hPa West 2.6 km/h 2.6 km/h 66 % 0 mm 0.0 W/m2 CLR
04:36 -14.4 °C -17.7 °C 34428.8 hPa West 6 km/h 6 km/h 66 % 0 mm 0.0 W/m2 CLR
04:41 -14.7 °C -17.9 °C 34428.8 hPa WNW 10.3 km/h 10.3 km/h 66 % 0 mm 0.0 W/m2 CLR
04:43 -14.7 °C -17.9 °C 34418.7 hPa WNW 11.9 km/h 11.9 km/h 66 % 0 mm 0.0 W/m2 CLR
04:48 -14.7 °C -17.9 °C 34418.7 hPa WNW 11.9 km/h 11.9 km/h 66 % 0 mm 0.0 W/m2 CLR
04:49 -14.7 °C -17.9 °C 34418.7 hPa WNW 15 km/h 15 km/h 66 % 0 mm 0.0 W/m2 CLR
04:54 -15 °C -18.4 °C 34418.7 hPa WNW 15.6 km/h 15.6 km/h 65 % 0 mm 0.0 W/m2 CLR
05:00 -15 °C -18.4 °C 34418.7 hPa WNW 10.3 km/h 10.3 km/h 65 % 0 mm 0.0 W/m2 CLR
05:04 -15 °C -18.4 °C 34418.7 hPa WNW 29.8 km/h 29.8 km/h 65 % 0 mm 0.0 W/m2 CLR
05:09 -15.3 °C -18.7 °C 34405.1 hPa WNW 17.9 km/h 17.9 km/h 65 % 0 mm 0.0 W/m2 CLR
05:10 -15.3 °C -18.7 °C 34405.1 hPa NW 17.9 km/h 17.9 km/h 65 % 0 mm 0.0 W/m2 CLR
05:15 -15.3 °C -18.7 °C 34418.7 hPa WNW 15.6 km/h 15.6 km/h 65 % 0 mm 0.0 W/m2 CLR
05:16 -15.3 °C -18.7 °C 34405.1 hPa WNW 15 km/h 15 km/h 65 % 0 mm 0.0 W/m2 CLR
05:20 -15.3 °C -18.7 °C 34405.1 hPa WNW 23.8 km/h 23.8 km/h 65 % 0 mm 0.0 W/m2 CLR
05:25 -15.3 °C -18.7 °C 34405.1 hPa WNW 23.8 km/h 23.8 km/h 65 % 0 mm 0.0 W/m2 CLR
05:30 -15.3 °C -18.7 °C 34405.1 hPa West 15 km/h 15 km/h 65 % 0 mm 0.0 W/m2 CLR
05:35 -15.3 °C -18.5 °C 34395 hPa WNW 23.8 km/h 23.8 km/h 66 % 0 mm 0.0 W/m2 CLR
05:36 -15.3 °C -18.5 °C 34405.1 hPa West 9 km/h 9 km/h 66 % 0 mm 0.0 W/m2 CLR
05:41 -15.3 °C -18.5 °C 34395 hPa WNW 17.9 km/h 17.9 km/h 66 % 0 mm 0.0 W/m2 CLR
05:42 -15.3 °C -18.5 °C 34405.1 hPa West 17.9 km/h 17.9 km/h 66 % 0 mm 0.0 W/m2 CLR
05:43 -15.3 °C -18.5 °C 34405.1 hPa WNW 9 km/h 9 km/h 66 % 0 mm 0.0 W/m2 CLR
05:48 -15.6 °C -18.8 °C 34395 hPa West 6 km/h   66 % 0 mm 0.0 W/m2 CLR
05:50 -15.6 °C -18.8 °C 34395 hPa WNW 3.1 km/h   66 % 0 mm 0.0 W/m2 CLR
05:54 -15.6 °C -18.8 °C 34395 hPa Calm     66 % 0 mm 0.0 W/m2 CLR
05:59 -15.6 °C -18.7 °C 34395 hPa Calm     67 % 0 mm 0.0 W/m2 CLR
06:00 -15.6 °C -18.7 °C 34395 hPa Calm     67 % 0 mm 0.0 W/m2 CLR
06:05 -15.9 °C -19 °C 34395 hPa Calm     67 % 0 mm 0.0 W/m2 CLR
06:10 -15.9 °C -18.8 °C 34395 hPa Calm     69 % 0 mm 0.0 W/m2 CLR
06:15 -15.9 °C -18.8 °C 34395 hPa Calm     69 % 0 mm 0.0 W/m2 CLR
06:19 -16.2 °C -19 °C 34395 hPa Calm     70 % 0 mm 0.0 W/m2 CLR
06:24 -16.2 °C -18.8 °C 34395 hPa Calm     71 % 0 mm 0.0 W/m2 CLR
06:28 -16.2 °C -18.8 °C 34395 hPa Calm     72 % 0 mm 0.0 W/m2 CLR
06:33 -16.2 °C -18.6 °C 34395 hPa Calm     74 % 0 mm 0.0 W/m2 CLR
06:37 -16.2 °C -18.6 °C 34395 hPa Calm     74 % 0 mm 0.0 W/m2 CLR
06:42 -16.2 °C -18.4 °C 34395 hPa West 9 km/h 9 km/h 75 % 0 mm 0.0 W/m2 CLR
06:45 -16.6 °C -18.8 °C 34384.8 hPa West 9 km/h 9.3 km/h 75 % 0 mm 0.0 W/m2 CLR
06:50 -16.6 °C -18.6 °C 34384.8 hPa WNW 10.3 km/h 10.3 km/h 77 % 0 mm 0.0 W/m2 CLR
06:55 -16.6 °C -18.8 °C 34395 hPa West 9 km/h 9 km/h 75 % 0 mm 0.0 W/m2 CLR
06:57 -16.6 °C -18.9 °C 34395 hPa West 3.1 km/h   73 % 0 mm 0.0 W/m2 CLR
07:02 -16.6 °C -19.1 °C 34395 hPa Calm     72 % 0 mm 0.0 W/m2 CLR
07:03 -16.6 °C -19.2 °C 34395 hPa Calm     71 % 0 mm 0.0 W/m2 CLR
07:07 -16.8 °C -19.3 °C 34395 hPa Calm     72 % 0 mm 0.0 W/m2 CLR
07:09 -16.6 °C -18.9 °C 34395 hPa Calm     73 % 0 mm 0.0 W/m2 CLR
07:12 -16.6 °C -18.8 °C 34395 hPa Calm     74 % 0 mm 0.0 W/m2 CLR
07:17 -16.6 °C -18.7 °C 34384.8 hPa Calm     76 % 0 mm 0.0 W/m2 CLR
07:18 -16.6 °C -18.8 °C 34384.8 hPa Calm     75 % 0 mm 0.0 W/m2 CLR
07:23 -16.6 °C -18.8 °C 34384.8 hPa Calm     75 % 0 mm 0.0 W/m2 CLR
07:25 -16.6 °C -18.7 °C 34384.8 hPa Calm     76 % 0 mm 0.0 W/m2 CLR
07:30 -16.6 °C -18.6 °C 34384.8 hPa Calm     77 % 0 mm 0.0 W/m2 CLR
07:31 -16.6 °C -18.6 °C 34384.8 hPa Calm     77 % 0 mm 0.0 W/m2 CLR
07:36 -16.8 °C -18.7 °C 34384.8 hPa Calm     79 % 0 mm 0.0 W/m2 CLR
07:38 -16.8 °C -18.7 °C 34384.8 hPa West 2.6 km/h 2.6 km/h 79 % 0 mm 0.0 W/m2 CLR
07:44 -16.6 °C -18.3 °C 34384.8 hPa Calm     80 % 0 mm 0.0 W/m2 CLR
07:47 -16.6 °C -18.3 °C 34384.8 hPa Calm     80 % 0 mm 0.0 W/m2 CLR
07:52 -16.6 °C -18.3 °C 34395 hPa West 12.9 km/h 12.9 km/h 80 % 0 mm 0.0 W/m2 CLR
07:57 -16.8 °C -18.4 °C 34395 hPa West 9 km/h 9 km/h 81 % 0 mm 0.0 W/m2 CLR
07:59 -16.8 °C -18.4 °C 34395 hPa West 11.9 km/h   81 % 0 mm 0.0 W/m2 CLR
08:04 -16.8 °C -18.4 °C 34395 hPa Calm     81 % 0 mm 0.0 W/m2 CLR
08:07 -16.8 °C -18.4 °C 34395 hPa Calm     81 % 0 mm 0.0 W/m2 CLR
08:10 -16.8 °C -18.4 °C 34395 hPa Calm     81 % 0 mm 0.0 W/m2 CLR
08:12 -16.8 °C -18.7 °C 34395 hPa Calm     79 % 0 mm 0.0 W/m2 CLR
08:18 -16.8 °C -18.6 °C 34395 hPa Calm     80 % 0 mm 0.0 W/m2 OVC
08:23 -16.8 °C -18.4 °C 34395 hPa Calm     81 % 0 mm 5.0 W/m2 OVC
08:26 -16.8 °C -18.6 °C 34395 hPa Calm     80 % 0 mm 5.0 W/m2 OVC
08:31 -16.8 °C -18.4 °C 34395 hPa Calm     81 % 0 mm 7.0 W/m2 BKN
08:36 -16.6 °C -18.2 °C 34405.1 hPa Calm     81 % 0 mm 9.0 W/m2 BKN
08:37 -16.6 °C -18.2 °C 34405.1 hPa Calm     81 % 0 mm 11.0 W/m2 BKN
08:42 -16.6 °C -18.1 °C 34405.1 hPa Calm     82 % 0 mm 12.0 W/m2 BKN
08:44 -16.8 °C -18.4 °C 34405.1 hPa West 11.9 km/h 11.9 km/h 82 % 0 mm 12.0 W/m2 BKN
08:49 -16.8 °C -18.3 °C 34405.1 hPa Calm     83 % 0 mm 14.0 W/m2 BKN
08:54 -16.8 °C -18.4 °C 34405.1 hPa Calm     82 % 0 mm 18.0 W/m2 BKN
08:55 -16.8 °C -18.4 °C 34405.1 hPa Calm     82 % 0 mm 18.0 W/m2 BKN
09:00 -16.8 °C -18.4 °C 34405.1 hPa Calm     81 % 0 mm 25.0 W/m2 BKN
09:02 -16.8 °C -18.4 °C 34405.1 hPa Calm     81 % 0 mm 32.0 W/m2 BKN
09:07 -16.8 °C -18.4 °C 34405.1 hPa NW 15 km/h 15 km/h 81 % 0 mm 37.0 W/m2 BKN
09:11 -16.8 °C -19.5 °C 34405.1 hPa NW 28.5 km/h 28.5 km/h 71 % 0 mm 49.0 W/m2 SCT
09:16 -16.8 °C -20 °C 34405.1 hPa NW 36.2 km/h 36.2 km/h 66 % 0 mm 58.0 W/m2 SCT
09:17 -16.8 °C -20.1 °C 34405.1 hPa NNW 38.8 km/h 38.8 km/h 65 % 0 mm 60.0 W/m2 SCT
09:22 -16.6 °C -19.9 °C 34405.1 hPa NNW 35.7 km/h 35.7 km/h 64 % 0 mm 63.0 W/m2 SCT
09:26 -16.2 °C -19.7 °C 34405.1 hPa North 29.8 km/h 29.8 km/h 64 % 0 mm 84.0 W/m2 SCT
09:30 -14.1 °C -17.6 °C 34405.1 hPa NW 31.1 km/h 31.1 km/h 64 % 0 mm 97.0 W/m2 FEW
09:31 -14.1 °C -17.6 °C 34405.1 hPa NNW 35.7 km/h 35.7 km/h 64 % 0 mm 97.0 W/m2 FEW
09:36 -12.8 °C -16.4 °C 34395 hPa North 29.8 km/h 29.8 km/h 64 % 0 mm 90.0 W/m2 CLR
09:38 -12.6 °C -16.3 °C 34395 hPa North 38.8 km/h 38.8 km/h 63 % 0 mm 118.0 W/m2 CLR
09:44 -11.6 °C -15.4 °C 34395 hPa North 44.7 km/h 44.7 km/h 63 % 0 mm 132.0 W/m2 CLR
09:49 -11.3 °C -15.3 °C 34395 hPa NNW 53.6 km/h 53.6 km/h 61 % 0 mm 148.0 W/m2 CLR
09:54 -11.3 °C -15.3 °C 34395 hPa NNW 50.7 km/h 50.7 km/h 61 % 0 mm 162.0 W/m2 CLR
09:56 -11 °C -15.2 °C 34395 hPa NNW 62.1 km/h 62.1 km/h 60 % 0 mm 169.0 W/m2 CLR
09:59 -11 °C -15.2 °C 34395 hPa NNW 59.5 km/h 59.5 km/h 60 % 0 mm 179.0 W/m2 CLR
10:02 -10.7 °C -15.1 °C 34395 hPa NNW 59.5 km/h 59.5 km/h 59 % 0 mm 188.0 W/m2 CLR
10:05 -10.7 °C -15.1 °C 34395 hPa North 56.6 km/h 56.6 km/h 59 % 0 mm 151.0 W/m2 CLR
10:09 -10.7 °C -15.1 °C 34384.8 hPa North 56.6 km/h 56.6 km/h 59 % 0 mm 134.0 W/m2 CLR
10:10 -10.7 °C -15.1 °C 34395 hPa North 59.5 km/h 59.5 km/h 59 % 0 mm 167.0 W/m2 CLR
10:15 -10.7 °C -15.2 °C 34384.8 hPa North 47.6 km/h 47.6 km/h 58 % 0 mm 185.0 W/m2 CLR
10:20 -10.4 °C -14.9 °C 34384.8 hPa North 41.7 km/h 41.7 km/h 58 % 0 mm 185.0 W/m2 CLR
10:21 -10.4 °C -14.9 °C 34384.8 hPa NNW 41.7 km/h 41.7 km/h 58 % 0 mm 185.0 W/m2 CLR
10:23 -10.4 °C -14.9 °C 34384.8 hPa NNW 41.7 km/h 41.7 km/h 58 % 0 mm 243.0 W/m2 CLR
10:27 -10.4 °C -15 °C 34384.8 hPa NNW 44.7 km/h 44.7 km/h 57 % 0 mm 251.0 W/m2 CLR
10:32 -10.4 °C -15 °C 34384.8 hPa North 41.7 km/h 41.7 km/h 57 % 0 mm 265.0 W/m2 CLR
10:37 -10.4 °C -15 °C 34384.8 hPa NW 29.8 km/h 29.8 km/h 57 % 0 mm 276.0 W/m2 CLR
10:42 -10.4 °C -15.2 °C 34384.8 hPa NW 31.1 km/h 31.1 km/h 56 % 0 mm 285.0 W/m2 CLR
10:47 -10.4 °C -15.3 °C 34384.8 hPa North 25.9 km/h 25.9 km/h 55 % 0 mm 295.0 W/m2 CLR
10:50 -10.1 °C -15 °C 34384.8 hPa North 26.9 km/h 26.9 km/h 55 % 0 mm 301.0 W/m2 CLR
10:52 -10.1 °C -15 °C 34384.8 hPa NW 38.8 km/h 38.8 km/h 55 % 0 mm 306.0 W/m2 CLR
10:57 -10.1 °C -15.2 °C 34384.8 hPa NW 29.8 km/h 29.8 km/h 54 % 0 mm 313.0 W/m2 CLR
11:02 -10.1 °C -15.2 °C 34384.8 hPa NW 35.7 km/h 35.7 km/h 54 % 0 mm 325.0 W/m2 CLR
11:03 -9.8 °C -14.9 °C 34371.3 hPa NW 50.7 km/h 50.7 km/h 54 % 0 mm 327.0 W/m2 CLR
11:08 -9.8 °C -15 °C 34371.3 hPa NW 35.7 km/h 35.7 km/h 53 % 0 mm 336.0 W/m2 CLR
11:10 -9.8 °C -15 °C 34371.3 hPa North 44.7 km/h 44.7 km/h 53 % 0 mm 339.0 W/m2 CLR
11:14 -9.8 °C -15 °C 34371.3 hPa North 50.7 km/h 50.7 km/h 53 % 0 mm 345.0 W/m2 CLR
11:15 -9.8 °C -15 °C 34371.3 hPa NNW 47.6 km/h 47.6 km/h 53 % 0 mm 348.0 W/m2 CLR
11:20 -9.4 °C -14.9 °C 34371.3 hPa NW 50.7 km/h 50.7 km/h 52 % 0 mm 355.0 W/m2 CLR
11:25 -9.4 °C -14.9 °C 34371.3 hPa NNW 41.7 km/h 41.7 km/h 52 % 0 mm 364.0 W/m2 CLR
11:26 -9.4 °C -14.9 °C 34371.3 hPa NNW 41.7 km/h 41.7 km/h 52 % 0 mm 364.0 W/m2 CLR
11:31 -9.4 °C -14.9 °C 34371.3 hPa North 38.8 km/h 38.8 km/h 52 % 0 mm 371.0 W/m2 CLR
11:36 -9.4 °C -14.9 °C 34361.1 hPa NW 26.9 km/h 26.9 km/h 52 % 0 mm 378.0 W/m2 CLR
11:37 -9.4 °C -14.9 °C 34361.1 hPa NW 26.9 km/h 26.9 km/h 52 % 0 mm 378.0 W/m2 CLR
11:38 -9.4 °C -15.1 °C 34361.1 hPa WNW 23.8 km/h 23.8 km/h 51 % 0 mm 380.0 W/m2 CLR
11:42 -9.4 °C -15.1 °C 34361.1 hPa North 29.8 km/h 29.8 km/h 51 % 0 mm 385.0 W/m2 CLR
11:44 -9.4 °C -15.1 °C 34361.1 hPa NNW 35.7 km/h 35.7 km/h 51 % 0 mm 387.0 W/m2 CLR
11:48 -9.4 °C -15.1 °C 34347.6 hPa NNW 50.7 km/h 50.7 km/h 51 % 0 mm 396.0 W/m2 CLR
11:53 -9.1 °C -14.8 °C 34347.6 hPa NW 38.8 km/h 38.8 km/h 51 % 0 mm 401.0 W/m2 CLR
11:54 -9.1 °C -14.9 °C 34347.6 hPa NW 35.7 km/h 35.7 km/h 50 % 0 mm 403.0 W/m2 CLR
11:59 -9.1 °C -14.9 °C 34347.6 hPa NNW 44.7 km/h 44.7 km/h 50 % 0 mm 406.0 W/m2 CLR
12:02 -9.1 °C -14.9 °C 34347.6 hPa WNW 29.8 km/h 29.8 km/h 50 % 0 mm 410.0 W/m2 CLR
12:07 -9.1 °C -14.9 °C 34337.4 hPa North 29.8 km/h 29.8 km/h 50 % 0 mm 417.0 W/m2 CLR
12:08 -9.1 °C -14.9 °C 34337.4 hPa NW 35.7 km/h 35.7 km/h 50 % 0 mm 417.0 W/m2 CLR
12:13 -9.1 °C -14.9 °C 34337.4 hPa NW 29.8 km/h 29.8 km/h 50 % 0 mm 422.0 W/m2 CLR
12:14 -9.1 °C -14.9 °C 34337.4 hPa WNW 33.6 km/h 33.6 km/h 50 % 0 mm 422.0 W/m2 CLR
12:19 -9.1 °C -15.1 °C 34337.4 hPa WNW 20.9 km/h 20.9 km/h 49 % 0 mm 427.0 W/m2 CLR
12:21 -9.1 °C -15.1 °C 34327.3 hPa NW 28.5 km/h 28.5 km/h 49 % 0 mm 427.0 W/m2 CLR
12:24 -9.1 °C -15.1 °C 34327.3 hPa NW 29.8 km/h 29.8 km/h 49 % 0 mm 434.0 W/m2 CLR
12:29 -9.1 °C -15.1 °C 34327.3 hPa NNW 26.9 km/h 26.9 km/h 49 % 0 mm 446.0 W/m2 CLR
12:30 -9.1 °C -15.1 °C 34327.3 hPa NNW 23.8 km/h 23.8 km/h 49 % 0 mm 448.0 W/m2 CLR
12:35 -9.1 °C -15.2 °C 34313.7 hPa WNW 32.8 km/h 32.8 km/h 48 % 0 mm 446.0 W/m2 CLR
12:36 -9.1 °C -15.2 °C 34313.7 hPa NW 35.7 km/h 35.7 km/h 48 % 0 mm 446.0 W/m2 CLR
12:42 -9.1 °C -15.2 °C 34313.7 hPa West 38.8 km/h 38.8 km/h 48 % 0 mm 468.0 W/m2 CLR
12:48 -9.1 °C -15.2 °C 34313.7 hPa WNW 41.7 km/h 41.7 km/h 48 % 0 mm 519.0 W/m2 CLR
12:50 -9.1 °C -15.2 °C 34313.7 hPa WNW 38.8 km/h 38.8 km/h 48 % 0 mm 527.0 W/m2 CLR
12:53 -8.8 °C -14.9 °C 34303.6 hPa NW 29.8 km/h 29.8 km/h 48 % 0 mm 552.0 W/m2 CLR
12:58 -8.8 °C -15.1 °C 34303.6 hPa WNW 25.9 km/h 25.9 km/h 47 % 0 mm 192.0 W/m2 CLR
13:03 -8.8 °C -14.9 °C 34303.6 hPa NW 29.8 km/h 29.8 km/h 48 % 0 mm 192.0 W/m2 CLR
13:07 -8.8 °C -14.9 °C 34293.4 hPa NW 29.8 km/h 29.8 km/h 48 % 0 mm 506.0 W/m2 CLR
13:12 -8.8 °C -15.1 °C 34293.4 hPa NW 35.7 km/h 35.7 km/h 47 % 0 mm 125.0 W/m2 CLR
13:13 -8.8 °C -14.9 °C 34279.9 hPa NW 35.7 km/h 35.7 km/h 48 % 0 mm 125.0 W/m2 CLR
13:15 -8.8 °C -14.9 °C 34279.9 hPa WNW 29.8 km/h 29.8 km/h 48 % 0 mm 105.0 W/m2 CLR
13:20 -9.1 °C -15.1 °C 34279.9 hPa WNW 29.8 km/h 29.8 km/h 49 % 0 mm 520.0 W/m2 CLR
13:21 -9.1 °C -15.1 °C 34279.9 hPa NW 23.8 km/h 23.8 km/h 49 % 0 mm 504.0 W/m2 CLR
13:26 -8.8 °C -14.9 °C 34279.9 hPa West 26.9 km/h 26.9 km/h 48 % 0 mm 478.0 W/m2 CLR
13:31 -8.8 °C -15.1 °C 34269.7 hPa NW 44.7 km/h 44.7 km/h 47 % 0 mm 529.0 W/m2 CLR
13:35 -8.8 °C -15.3 °C 34269.7 hPa NNW 31.1 km/h 31.1 km/h 46 % 0 mm 524.0 W/m2 CLR
13:36 -8.8 °C -15.3 °C 34269.7 hPa WNW 29.8 km/h 29.8 km/h 46 % 0 mm 545.0 W/m2 CLR
13:40 -8.5 °C -15 °C 34269.7 hPa WNW 17.9 km/h 17.9 km/h 46 % 0 mm 190.0 W/m2 CLR
13:45 -8.5 °C -14.8 °C 34256.2 hPa WNW 26.9 km/h 26.9 km/h 47 % 0 mm 503.0 W/m2 CLR
13:47 -8.5 °C -14.8 °C 34256.2 hPa WNW 6 km/h 6 km/h 47 % 0 mm 476.0 W/m2 CLR
13:52 -8.5 °C -15 °C 34256.2 hPa NW 35.7 km/h 35.7 km/h 46 % 0 mm 455.0 W/m2 CLR
13:54 -8.5 °C -15 °C 34256.2 hPa NW 25.9 km/h 25.9 km/h 46 % 0 mm 448.0 W/m2 CLR
13:59 -8.5 °C -15 °C 34246 hPa WNW 26.9 km/h 26.9 km/h 46 % 0 mm 452.0 W/m2 CLR
14:03 -8.5 °C -15 °C 34246 hPa WNW 35.7 km/h 35.7 km/h 46 % 0 mm 267.0 W/m2 CLR
14:08 -8.8 °C -15.1 °C 34246 hPa NNW 6 km/h 6 km/h 47 % 0 mm 144.0 W/m2 CLR
14:10 -8.8 °C -14.9 °C 34246 hPa NW 20.8 km/h 20.8 km/h 48 % 0 mm 461.0 W/m2 CLR
14:15 -8.5 °C -14.8 °C 34235.8 hPa West 26.9 km/h 26.9 km/h 47 % 0 mm 100.0 W/m2 CLR
14:17 -8.8 °C -15.1 °C 34235.8 hPa WNW 29.8 km/h 29.8 km/h 47 % 0 mm 127.0 W/m2 CLR
14:22 -8.8 °C -15.1 °C 34235.8 hPa NW 26.9 km/h 26.9 km/h 47 % 0 mm 135.0 W/m2 CLR
14:23 -8.8 °C -15.1 °C 34235.8 hPa WNW 26.9 km/h 26.9 km/h 47 % 0 mm 135.0 W/m2 CLR
14:28 -8.8 °C -15.1 °C 34235.8 hPa WNW 41.7 km/h 41.7 km/h 47 % 0 mm 144.0 W/m2 CLR
14:33 -8.8 °C -15.1 °C 34235.8 hPa WNW 6 km/h 6 km/h 47 % 0 mm 98.0 W/m2 CLR
14:36 -9.1 °C -15.4 °C 34235.8 hPa WNW 17.9 km/h 17.9 km/h 47 % 0 mm 88.0 W/m2 CLR
14:41 -9.1 °C -15.2 °C 34222.3 hPa NW 23.3 km/h 23.3 km/h 48 % 0 mm 74.0 W/m2 CLR
14:42 -9.1 °C -15.2 °C 34222.3 hPa WNW 26.9 km/h 26.9 km/h 48 % 0 mm 79.0 W/m2 CLR
14:43 -9.1 °C -15.2 °C 34222.3 hPa NW 26.9 km/h 26.9 km/h 48 % 0 mm 121.0 W/m2 FEW
14:48 -9.1 °C -15.2 °C 34222.3 hPa NW 26.9 km/h 26.9 km/h 48 % 0 mm 390.0 W/m2 CLR
14:53 -8.8 °C -15.1 °C 34212.1 hPa NW 6 km/h 6 km/h 47 % 0 mm 353.0 W/m2 CLR
14:56 -8.8 °C -15.1 °C 34212.1 hPa NW 3.1 km/h 3.1 km/h 47 % 0 mm 353.0 W/m2 CLR
15:01 -8.5 °C -15 °C 34212.1 hPa WNW 6 km/h 6 km/h 46 % 0 mm 345.0 W/m2 CLR
15:06 -8.2 °C -14.9 °C 34198.6 hPa NW 29.8 km/h 29.8 km/h 45 % 0 mm 336.0 W/m2 CLR
15:08 -8.2 °C -14.9 °C 34212.1 hPa NW 23.8 km/h 23.8 km/h 45 % 0 mm 339.0 W/m2 CLR
15:09 -8.2 °C -14.9 °C 34212.1 hPa NW 26.9 km/h 26.9 km/h 45 % 0 mm 334.0 W/m2 CLR
15:14 -8.2 °C -14.9 °C 34198.6 hPa West 31.1 km/h 31.1 km/h 45 % 0 mm 330.0 W/m2 CLR
15:15 -8.2 °C -14.9 °C 34198.6 hPa West 29.8 km/h 29.8 km/h 45 % 0 mm 334.0 W/m2 CLR
15:17 -8.2 °C -14.9 °C 34198.6 hPa West 29.8 km/h 29.8 km/h 45 % 0 mm 338.0 W/m2 CLR
15:22 -8.2 °C -15.1 °C 34198.6 hPa WNW 3.1 km/h 3.1 km/h 44 % 0 mm 316.0 W/m2 CLR
15:23 -8.2 °C -14.9 °C 34198.6 hPa WNW 3.1 km/h 3.1 km/h 45 % 0 mm 316.0 W/m2 CLR
15:28 -8.2 °C -15.1 °C 34198.6 hPa North 3.1 km/h 3.1 km/h 44 % 0 mm 311.0 W/m2 CLR
15:33 -8.2 °C -14.9 °C 34198.6 hPa NE 23.8 km/h 23.8 km/h 45 % 0 mm 292.0 W/m2 CLR
15:38 -8.2 °C -14.9 °C 34198.6 hPa Calm     45 % 0 mm 279.0 W/m2 CLR
15:39 -8.2 °C -14.9 °C 34198.6 hPa Calm     45 % 0 mm 279.0 W/m2 CLR
15:40 -8.2 °C -14.9 °C 34198.6 hPa Calm     45 % 0 mm 278.0 W/m2 CLR
15:45 -8.2 °C -15.1 °C 34198.6 hPa NE 41.7 km/h 41.7 km/h 44 % 0 mm 267.0 W/m2 CLR
15:50 -8.2 °C -15.1 °C 34188.4 hPa North 29.8 km/h 29.8 km/h 44 % 0 mm 250.0 W/m2 CLR
15:51 -8.2 °C -15.1 °C 34188.4 hPa North 29.8 km/h 29.8 km/h 44 % 0 mm 250.0 W/m2 CLR
15:56 -8.2 °C -14.9 °C 34188.4 hPa NW 3.1 km/h 3.1 km/h 45 % 0 mm 232.0 W/m2 CLR
16:01 -8.2 °C -15.1 °C 34188.4 hPa Calm     44 % 0 mm 225.0 W/m2 CLR
16:06 -8.2 °C -15.1 °C 34188.4 hPa Calm     44 % 0 mm 199.0 W/m2 CLR
16:11 -8.5 °C -15.4 °C 34178.3 hPa Calm     44 % 0 mm 183.0 W/m2 CLR
16:16 -8.8 °C -15.8 °C 34178.3 hPa NE 9 km/h 9 km/h 43 % 0 mm 169.0 W/m2 CLR
16:21 -8.8 °C -15.8 °C 34178.3 hPa North 3.1 km/h 3.1 km/h 43 % 0 mm 155.0 W/m2 CLR
16:26 -9.1 °C -16.1 °C 34178.3 hPa Calm     43 % 0 mm 141.0 W/m2 CLR
16:31 -9.1 °C -16.1 °C 34178.3 hPa Calm     43 % 0 mm 123.0 W/m2 CLR
16:36 -9.4 °C -16 °C 34178.3 hPa ENE 3.1 km/h 3.1 km/h 45 % 0 mm 111.0 W/m2 CLR
16:38 -9.4 °C -15.9 °C 34178.3 hPa Calm     46 % 0 mm 105.0 W/m2 CLR
16:43 -9.4 °C -15.9 °C 34164.7 hPa Calm     46 % 0 mm 91.0 W/m2 CLR
16:48 -9.8 °C -16.2 °C 34164.7 hPa Calm     46 % 0 mm 81.0 W/m2 FEW
16:50 -9.8 °C -16.2 °C 34164.7 hPa Calm     46 % 0 mm 76.0 W/m2 FEW
16:55 -10.1 °C -16.4 °C 34178.3 hPa Calm     46 % 0 mm 60.0 W/m2 SCT
16:56 -10.1 °C -16.4 °C 34164.7 hPa Calm     46 % 0 mm 60.0 W/m2 SCT
17:01 -10.4 °C -16.7 °C 34164.7 hPa Calm     46 % 0 mm 49.0 W/m2 SCT
17:06 -10.7 °C -17 °C 34164.7 hPa Calm     46 % 0 mm 35.0 W/m2 BKN
17:11 -11 °C -17.3 °C 34164.7 hPa Calm     46 % 0 mm 18.0 W/m2 BKN
17:12 -11 °C -17.3 °C 34164.7 hPa Calm     46 % 0 mm 18.0 W/m2 BKN
17:17 -11.3 °C -17.4 °C 34164.7 hPa Calm     47 % 0 mm 19.0 W/m2 BKN
17:22 -11.3 °C -17.4 °C 34164.7 hPa Calm     47 % 0 mm 16.0 W/m2 BKN
17:27 -11.6 °C -17.7 °C 34164.7 hPa Calm     47 % 0 mm 12.0 W/m2 BKN
17:29 -11.6 °C -17.5 °C 34164.7 hPa Calm     48 % 0 mm 12.0 W/m2 BKN
17:34 -11.9 °C -17.8 °C 34164.7 hPa Calm     48 % 0 mm 11.0 W/m2 BKN
17:36 -11.9 °C -17.8 °C 34164.7 hPa Calm     48 % 0 mm 9.0 W/m2 BKN
17:41 -11.9 °C -17.6 °C 34164.7 hPa Calm     49 % 0 mm 7.0 W/m2 BKN
17:46 -12.2 °C -17.9 °C 34164.7 hPa Calm     49 % 0 mm 5.0 W/m2 OVC
17:51 -12.2 °C -17.7 °C 34164.7 hPa Calm     50 % 0 mm 0.0 W/m2 OVC
17:52 -12.2 °C -17.7 °C 34164.7 hPa Calm     50 % 0 mm 0.0 W/m2 OVC
18:01 -12.2 °C -17.6 °C 34164.7 hPa Calm     51 % 0 mm 0.0 W/m2 CLR
18:06 -12.2 °C -17.4 °C 34164.7 hPa Calm     52 % 0 mm 0.0 W/m2 CLR
18:11 -12.2 °C -17.3 °C 34164.7 hPa Calm     53 % 0 mm 0.0 W/m2 CLR
18:12 -12.2 °C -17.2 °C 34164.7 hPa Calm     54 % 0 mm 0.0 W/m2 CLR
18:16 -12.2 °C -17 °C 34164.7 hPa Calm     55 % 0 mm 0.0 W/m2 CLR
18:21 -12.6 °C -17.1 °C 34164.7 hPa Calm     57 % 0 mm 0.0 W/m2 CLR
18:22 -12.6 °C -17.1 °C 34164.7 hPa Calm     57 % 0 mm 0.0 W/m2 CLR
18:27 -12.6 °C -17.1 °C 34164.7 hPa Calm     57 % 0 mm 0.0 W/m2 CLR
18:32 -12.8 °C -17.2 °C 34164.7 hPa Calm     58 % 0 mm 0.0 W/m2 CLR
18:36 -13.2 °C -17.3 °C 34164.7 hPa Calm     59 % 0 mm 0.0 W/m2 CLR
18:38 -13.2 °C -17.2 °C 34164.7 hPa Calm     60 % 0 mm 0.0 W/m2 CLR
18:43 -13.2 °C -17.2 °C 34164.7 hPa Calm     60 % 0 mm 0.0 W/m2 CLR
18:46 -13.2 °C -17.2 °C 34164.7 hPa Calm     60 % 0 mm 0.0 W/m2 CLR
18:51 -13.4 °C -17.5 °C 34164.7 hPa Calm     60 % 0 mm 0.0 W/m2 CLR
18:53 -13.4 °C -17.4 °C 34164.7 hPa Calm     61 % 0 mm 0.0 W/m2 CLR
18:58 -13.8 °C -17.4 °C 34164.7 hPa Calm     63 % 0 mm 0.0 W/m2 CLR
19:00 -13.8 °C -17.4 °C 34164.7 hPa Calm     63 % 0 mm 0.0 W/m2 CLR
19:05 -14.1 °C -17.6 °C 34164.7 hPa Calm     64 % 0 mm 0.0 W/m2 CLR
19:07 -14.1 °C -17.6 °C 34164.7 hPa Calm     64 % 0 mm 0.0 W/m2 CLR
19:12 -14.4 °C -17.9 °C 34164.7 hPa Calm     64 % 0 mm 0.0 W/m2 CLR
19:13 -14.4 °C -17.9 °C 34164.7 hPa Calm     64 % 0 mm 0.0 W/m2 CLR
19:16 -14.4 °C -17.8 °C 34164.7 hPa Calm     65 % 0 mm 0.0 W/m2 CLR
19:21 -14.1 °C -17.4 °C 34164.7 hPa Calm     65 % 0 mm 0.0 W/m2 CLR
19:23 -14.1 °C -17.4 °C 34164.7 hPa Calm     65 % 0 mm 0.0 W/m2 CLR
19:28 -14.1 °C -17.4 °C 34164.7 hPa Calm     65 % 0 mm 0.0 W/m2 CLR
19:32 -14.4 °C -17.7 °C 34178.3 hPa Calm     66 % 0 mm 0.0 W/m2 CLR
19:37 -14.4 °C -17.7 °C 34164.7 hPa Calm     66 % 0 mm 0.0 W/m2 CLR
19:40 -14.4 °C -17.6 °C 34164.7 hPa Calm     67 % 0 mm 0.0 W/m2 CLR
19:45 -14.1 °C -17.3 °C 34164.7 hPa Calm     67 % 0 mm 0.0 W/m2 CLR
19:50 -14.1 °C -17.3 °C 34164.7 hPa Calm     66 % 0 mm 0.0 W/m2 CLR
19:55 -14.4 °C -17.6 °C 34178.3 hPa Calm     67 % 0 mm 0.0 W/m2 CLR
19:58 -14.4 °C -17.6 °C 34164.7 hPa Calm     67 % 0 mm 0.0 W/m2 CLR
20:03 -14.7 °C -17.8 °C 34178.3 hPa Calm     67 % 0 mm 0.0 W/m2 CLR
20:08 -15 °C -18.1 °C 34164.7 hPa Calm     67 % 0 mm 0.0 W/m2 CLR
20:13 -15 °C -18 °C 34164.7 hPa Calm     68 % 0 mm 0.0 W/m2 CLR
20:16 -15 °C -17.9 °C 34164.7 hPa Calm     69 % 0 mm 0.0 W/m2 CLR
20:22 -15.3 °C -18.2 °C 34178.3 hPa Calm     69 % 0 mm 0.0 W/m2 CLR
20:27 -15.3 °C -18.3 °C 34178.3 hPa Calm     68 % 0 mm 0.0 W/m2 CLR
20:28 -15.3 °C -18.2 °C 34164.7 hPa Calm     69 % 0 mm 0.0 W/m2 CLR
20:33 -15.3 °C -18.3 °C 34164.7 hPa Calm     68 % 0 mm 0.0 W/m2 CLR
20:35 -15.3 °C -18.2 °C 34164.7 hPa Calm     69 % 0 mm 0.0 W/m2 CLR
20:40 -15 °C -17.9 °C 34164.7 hPa Calm     69 % 0 mm 0.0 W/m2 CLR
20:42 -15 °C -17.9 °C 34164.7 hPa Calm     69 % 0 mm 0.0 W/m2 CLR
20:47 -15 °C -17.8 °C 34164.7 hPa Calm     70 % 0 mm 0.0 W/m2 CLR
20:50 -15 °C -17.7 °C 34164.7 hPa Calm     71 % 0 mm 0.0 W/m2 CLR
20:55 -15 °C -17.8 °C 34154.6 hPa Calm     70 % 0 mm 0.0 W/m2 CLR
20:59 -15 °C -17.8 °C 34154.6 hPa Calm     70 % 0 mm 0.0 W/m2 CLR
21:02 -15.3 °C -17.9 °C 34164.7 hPa Calm     71 % 0 mm 0.0 W/m2 CLR
21:07 -15.3 °C -17.9 °C 34154.6 hPa Calm     71 % 0 mm 0.0 W/m2 CLR
21:09 -15.6 °C -18.3 °C 34154.6 hPa Calm     71 % 0 mm 0.0 W/m2 CLR
21:10 -15.6 °C -18.3 °C 34154.6 hPa Calm     71 % 0 mm 0.0 W/m2 CLR
21:15 -15.6 °C -18.3 °C 34154.6 hPa Calm     71 % 0 mm 0.0 W/m2 CLR
21:16 -15.6 °C -18.3 °C 34154.6 hPa Calm     71 % 0 mm 0.0 W/m2 CLR
21:19 -15.6 °C -18.2 °C 34154.6 hPa Calm     72 % 0 mm 0.0 W/m2 CLR
21:24 -15.9 °C -18.4 °C 34154.6 hPa Calm     72 % 0 mm 0.0 W/m2 CLR
21:25 -15.9 °C -18.4 °C 34154.6 hPa Calm     72 % 0 mm 0.0 W/m2 CLR
21:30 -15.9 °C -18.4 °C 34154.6 hPa Calm     72 % 0 mm 0.0 W/m2 CLR
21:35 -16.2 °C -18.8 °C 34154.6 hPa Calm     72 % 0 mm 0.0 W/m2 CLR
21:40 -16.2 °C -18.8 °C 34154.6 hPa Calm     72 % 0 mm 0.0 W/m2 CLR
21:42 -16.2 °C -18.8 °C 34154.6 hPa Calm     72 % 0 mm 0.0 W/m2 CLR
21:47 -16.2 °C -18.7 °C 34154.6 hPa Calm     73 % 0 mm 0.0 W/m2 CLR
21:48 -15.9 °C -18.4 °C 34154.6 hPa Calm     73 % 0 mm 0.0 W/m2 CLR
21:53 -15.9 °C -18.4 °C 34154.6 hPa Calm     73 % 0 mm 0.0 W/m2 CLR
21:55 -15.9 °C -18.4 °C 34154.6 hPa Calm     73 % 0 mm 0.0 W/m2 CLR
21:57 -15.9 °C -18.3 °C 34154.6 hPa Calm     74 % 0 mm 0.0 W/m2 CLR
22:00 -15.9 °C -18.2 °C 34154.6 hPa Calm     75 % 0 mm 0.0 W/m2 CLR
22:05 -15.9 °C -18.1 °C 34154.6 hPa Calm     76 % 0 mm 0.0 W/m2 CLR
22:07 -15.9 °C -18.2 °C 34154.6 hPa Calm     75 % 0 mm 0.0 W/m2 CLR
22:11 -16.2 °C -18.4 °C 34154.6 hPa Calm     76 % 0 mm 0.0 W/m2 CLR
22:16 -16.2 °C -18.2 °C 34154.6 hPa Calm     77 % 0 mm 0.0 W/m2 CLR
22:21 -16.2 °C -18.2 °C 34154.6 hPa Calm     77 % 0 mm 0.0 W/m2 CLR
22:22 -16.2 °C -18.2 °C 34154.6 hPa Calm     77 % 0 mm 0.0 W/m2 CLR
22:27 -16.2 °C -18.4 °C 34154.6 hPa Calm     76 % 0 mm 0.0 W/m2 CLR
22:30 -16.2 °C -18.2 °C 34154.6 hPa Calm     77 % 0 mm 0.0 W/m2 CLR
22:32 -16.2 °C -18.2 °C 34154.6 hPa Calm     77 % 0 mm 0.0 W/m2 CLR
22:37 -16.2 °C -18.4 °C 34154.6 hPa Calm     76 % 0 mm 0.0 W/m2 CLR
22:40 -16.2 °C -18.4 °C 34144.4 hPa Calm     75 % 0 mm 0.0 W/m2 CLR
22:45 -16.6 °C -18.7 °C 34154.6 hPa Calm     76 % 0 mm 0.0 W/m2 CLR
22:48 -16.6 °C -18.6 °C 34144.4 hPa Calm     77 % 0 mm 0.0 W/m2 CLR
22:51 -16.6 °C -18.6 °C 34154.6 hPa Calm     77 % 0 mm 0.0 W/m2 CLR
22:54 -16.6 °C -18.7 °C 34154.6 hPa Calm     76 % 0 mm 0.0 W/m2 CLR
22:59 -16.6 °C -18.7 °C 34144.4 hPa Calm     76 % 0 mm 0.0 W/m2 CLR
23:00 -16.6 °C -18.7 °C 34144.4 hPa Calm     76 % 0 mm 0.0 W/m2 CLR
23:05 -16.6 °C -18.6 °C 34144.4 hPa Calm     77 % 0 mm 0.0 W/m2 CLR
23:06 -16.6 °C -18.6 °C 34144.4 hPa Calm     77 % 0 mm 0.0 W/m2 CLR
23:11 -16.6 °C -18.4 °C 34144.4 hPa Calm     78 % 0 mm 0.0 W/m2 CLR
23:17 -16.2 °C -18.2 °C 34144.4 hPa Calm     78 % 0 mm 0.0 W/m2 CLR
23:19 -16.2 °C -18.2 °C 34144.4 hPa Calm     78 % 0 mm 0.0 W/m2 CLR
23:24 -16.2 °C -18.1 °C 34144.4 hPa Calm     79 % 0 mm 0.0 W/m2 CLR
23:27 -16.2 °C -18.1 °C 34130.9 hPa Calm     79 % 0 mm 0.0 W/m2 CLR
23:29 -16.2 °C -18.1 °C 34130.9 hPa Calm     79 % 0 mm 0.0 W/m2 CLR
23:32 -16.2 °C -18.1 °C 34130.9 hPa Calm     79 % 0 mm 0.0 W/m2 CLR
23:36 -16.2 °C -18.1 °C 34144.4 hPa Calm     79 % 0 mm 0.0 W/m2 CLR
23:41 -16.2 °C -18.1 °C 34144.4 hPa Calm     79 % 0 mm 0.0 W/m2 CLR
23:46 -16.6 °C -18.4 °C 34144.4 hPa Calm     79 % 0 mm 0.0 W/m2 CLR
23:48 -16.6 °C -18.3 °C 34144.4 hPa Calm     80 % 0 mm 0.0 W/m2 CLR
23:53 -16.6 °C -18.3 °C 34130.9 hPa Calm     80 % 0 mm 0.0 W/m2 CLR
23:59 -16.6 °C -18.3 °C 34130.9 hPa Calm     80 % 0 mm 0.0 W/m2 CLR
Lo Temps de Massalio
Compliments of Weather Underground - 1.5 mb